Elmer City, Washington
Current Conditions -  °F | °C
As of 11:53 AM on Saturday 20 Dec 2014 (Local Time) from KOMK Reporting Station
Light Rain Light Rain  
Wind Chill: 33°   Ceiling: 600
Heat Index: 33°   Visibility: 3mi
Dew Point: 32°   Wind: 0mph
Humidity: 96%   Direction: NA
Pressure: 29.75"   Gusts: NA
Location:  48°N, 118.95°W
Report Text: KOMK 201953Z AUTO 00000KT 3SM -RA BR BKN006 OVC013 01/00 A2975 RMK AO2 RAB17E38B52SNE17B38E52 PRESFR SLP086 P0003 T00060000
Loading
Personal Weather Stations






























Interactive Weather Map New forecast layout! Learn more

10-Day Weather Forecast

Advertisements
Track Severe Weather on mobile